createdAt,value
2017-12-24T00:00:50.488Z,0
2017-12-24T00:01:50.227Z,0
2017-12-24T00:02:50.240Z,0
2017-12-24T00:03:50.256Z,0
2017-12-24T00:04:50.001Z,0
2017-12-24T00:05:50.571Z,0
2017-12-24T00:06:50.300Z,0
2017-12-24T00:07:50.308Z,0
2017-12-24T00:08:50.329Z,0
2017-12-24T00:09:50.066Z,0
2017-12-24T00:10:50.083Z,0
2017-12-24T00:11:50.431Z,0
2017-12-24T00:12:50.161Z,0
2017-12-24T00:13:50.123Z,0
2017-12-24T00:14:50.692Z,0
2017-12-24T00:15:50.705Z,0
2017-12-24T00:16:50.445Z,0
2017-12-24T00:17:50.454Z,0
2017-12-24T00:18:49.918Z,0
2017-12-24T00:19:50.207Z,0
2017-12-24T00:20:49.943Z,0
2017-12-24T00:21:50.785Z,0
2017-12-24T00:22:50.571Z,0
2017-12-24T00:23:50.542Z,0
2017-12-24T00:24:50.556Z,0
2017-12-24T00:25:50.851Z,0
2017-12-24T00:26:50.579Z,0
2017-12-24T00:27:50.366Z,0
2017-12-24T00:28:50.616Z,0
2017-12-24T00:29:50.908Z,0
2017-12-24T00:30:50.914Z,0
2017-12-24T00:31:50.376Z,0
2017-12-24T00:32:50.164Z,0
2017-12-24T00:33:50.417Z,0
2017-12-24T00:34:50.449Z,0
2017-12-24T00:35:50.984Z,0
2017-12-24T00:36:50.721Z,0
2017-12-24T00:37:50.766Z,0
2017-12-24T00:38:50.753Z,0
2017-12-24T00:39:51.040Z,0
2017-12-24T00:40:51.053Z,0
2017-12-24T00:41:50.513Z,0
2017-12-24T00:42:50.586Z,0
2017-12-24T00:43:50.544Z,0
2017-12-24T00:44:50.832Z,0
2017-12-24T00:45:50.572Z,0
2017-12-24T00:46:51.138Z,0
2017-12-24T00:47:50.884Z,0
2017-12-24T00:48:50.890Z,0
2017-12-24T00:49:51.180Z,0
2017-12-24T00:50:50.641Z,0
2017-12-24T00:51:51.265Z,0
2017-12-24T00:52:51.223Z,0
2017-12-24T00:53:50.689Z,0
2017-12-24T00:54:50.709Z,0
2017-12-24T00:55:51.267Z,0
2017-12-24T00:56:51.292Z,0
2017-12-24T00:57:51.069Z,0
2017-12-24T00:58:51.038Z,0
2017-12-24T00:59:51.321Z,0
2017-12-24T01:00:50.795Z,0
2017-12-24T01:01:51.076Z,0
2017-12-24T01:02:51.411Z,0
2017-12-24T01:03:50.831Z,0
2017-12-24T01:04:51.398Z,0
2017-12-24T01:05:51.453Z,0
2017-12-24T01:06:50.865Z,0
2017-12-24T01:07:51.159Z,0
2017-12-24T01:08:51.499Z,0
2017-12-24T01:09:51.193Z,0
2017-12-24T01:10:50.924Z,0
2017-12-24T01:11:50.947Z,0
2017-12-24T01:12:51.240Z,0
2017-12-24T01:13:51.518Z,0
2017-12-24T01:14:51.531Z,0
2017-12-24T01:15:51.289Z,0
2017-12-24T01:16:51.281Z,0
2017-12-24T01:17:51.077Z,0
2017-12-24T01:18:51.042Z,0
2017-12-24T01:19:50.775Z,0
2017-12-24T01:20:51.074Z,0
2017-12-24T01:21:51.363Z,0
2017-12-24T01:22:51.694Z,0
2017-12-24T01:23:51.111Z,0
2017-12-24T01:24:51.394Z,0
2017-12-24T01:25:51.415Z,0
2017-12-24T01:26:51.712Z,0
2017-12-24T01:27:51.818Z,0
2017-12-24T01:28:51.733Z,0
2017-12-24T01:29:51.748Z,0
2017-12-24T01:30:51.483Z,0
2017-12-24T01:31:51.219Z,0
2017-12-24T01:32:51.788Z,0
2017-12-24T01:33:51.806Z,0
2017-12-24T01:34:51.879Z,0
2017-12-24T01:35:51.551Z,0
2017-12-24T01:36:51.842Z,0
2017-12-24T01:37:51.637Z,0
2017-12-24T01:38:51.597Z,0
2017-12-24T01:39:51.905Z,0
2017-12-24T01:40:51.623Z,0
2017-12-24T01:41:51.636Z,0
2017-12-24T01:42:51.664Z,0
2017-12-24T01:43:51.947Z,0
2017-12-24T01:44:51.401Z,0
2017-12-24T01:45:51.693Z,0
2017-12-24T01:46:51.982Z,0
2017-12-24T01:47:52.061Z,0
2017-12-24T01:48:51.459Z,0
2017-12-24T01:49:51.752Z,0
2017-12-24T01:50:51.764Z,0
2017-12-24T01:51:52.110Z,0
2017-12-24T01:52:51.273Z,0
2017-12-24T01:53:51.820Z,0
2017-12-24T01:54:51.822Z,0
2017-12-24T01:55:51.841Z,0
2017-12-24T01:56:52.127Z,0
2017-12-24T01:57:51.925Z,0
2017-12-24T01:58:52.154Z,0
2017-12-24T01:59:52.170Z,0
2017-12-24T02:00:52.191Z,0
2017-12-24T02:01:51.922Z,0
2017-12-24T02:02:52.209Z,0
2017-12-24T02:03:52.230Z,0
2017-12-24T02:04:51.969Z,0
2017-12-24T02:05:51.703Z,0
2017-12-24T02:06:51.719Z,0
2017-12-24T02:07:51.732Z,0
2017-12-24T02:08:51.742Z,0
2017-12-24T02:09:52.312Z,0
2017-12-24T02:10:52.060Z,0
2017-12-24T02:11:52.066Z,0
2017-12-24T02:12:52.084Z,0
2017-12-24T02:13:52.373Z,0
2017-12-24T02:14:52.120Z,0
2017-12-24T02:15:52.118Z,0
2017-12-24T02:16:52.139Z,0
2017-12-24T02:17:51.874Z,0
2017-12-24T02:18:52.445Z,0
2017-12-24T02:19:52.457Z,0
2017-12-24T02:20:51.917Z,0
2017-12-24T02:21:52.231Z,0
2017-12-24T02:22:52.548Z,0
2017-12-24T02:23:52.532Z,0
2017-12-24T02:24:52.526Z,0
2017-12-24T02:25:52.541Z,0
2017-12-24T02:26:52.280Z,0
2017-12-24T02:27:52.569Z,0
2017-12-24T02:28:52.581Z,0
2017-12-24T02:29:52.689Z,0
2017-12-24T02:30:52.620Z,0
2017-12-24T02:31:52.360Z,0
2017-12-24T02:32:52.114Z,0
2017-12-24T02:33:52.113Z,0
2017-12-24T02:34:52.677Z,0
2017-12-24T02:35:52.681Z,0
2017-12-24T02:36:52.720Z,0
2017-12-24T02:37:52.713Z,0
2017-12-24T02:38:52.443Z,0
2017-12-24T02:39:52.742Z,0
2017-12-24T02:40:52.201Z,0
2017-12-24T02:41:52.498Z,0
2017-12-24T02:42:52.506Z,0
2017-12-24T02:43:52.822Z,0
2017-12-24T02:44:52.535Z,0
2017-12-24T02:45:52.552Z,0
2017-12-24T02:46:52.564Z,0
2017-12-24T02:47:52.868Z,0
2017-12-24T02:48:52.872Z,0
2017-12-24T02:49:52.606Z,0
2017-12-24T02:50:52.339Z,0
2017-12-24T02:51:52.655Z,0
2017-12-24T02:52:52.931Z,0
2017-12-24T02:53:52.391Z,0
2017-12-24T02:54:52.952Z,0
2017-12-24T02:55:52.965Z,0
2017-12-24T02:56:52.701Z,0
2017-12-24T02:57:53.055Z,0
2017-12-24T02:58:52.484Z,0
2017-12-24T02:59:52.463Z,0
2017-12-24T03:00:53.030Z,0
2017-12-24T03:01:53.053Z,0
2017-12-24T03:02:53.060Z,0
2017-12-24T03:03:52.810Z,0
2017-12-24T03:04:53.093Z,0
2017-12-24T03:05:52.832Z,0
2017-12-24T03:06:53.198Z,0
2017-12-24T03:07:52.852Z,0
2017-12-24T03:08:52.596Z,0
2017-12-24T03:09:52.882Z,0
2017-12-24T03:10:53.179Z,0
2017-12-24T03:11:52.914Z,0
2017-12-24T03:12:53.200Z,0
2017-12-24T03:13:52.936Z,0
2017-12-24T03:14:52.956Z,0
2017-12-24T03:15:53.294Z,0
2017-12-24T03:16:52.708Z,0
2017-12-24T03:17:52.718Z,0
2017-12-24T03:18:52.787Z,0
2017-12-24T03:19:52.749Z,0
2017-12-24T03:20:53.039Z,0
2017-12-24T03:21:53.331Z,0
2017-12-24T03:22:53.068Z,0
2017-12-24T03:23:53.132Z,0
2017-12-24T03:24:53.104Z,0
2017-12-24T03:25:53.380Z,0
2017-12-24T03:26:52.853Z,0
2017-12-24T03:27:53.132Z,0
2017-12-24T03:28:53.478Z,0
2017-12-24T03:29:53.448Z,0
2017-12-24T03:30:53.194Z,0
2017-12-24T03:31:52.640Z,0
2017-12-24T03:32:52.929Z,0
2017-12-24T03:33:52.949Z,0
2017-12-24T03:34:52.963Z,0
2017-12-24T03:35:53.326Z,0
2017-12-24T03:36:53.268Z,0
2017-12-24T03:37:53.000Z,0
2017-12-24T03:38:52.742Z,0
2017-12-24T03:39:53.319Z,0
2017-12-24T03:40:53.045Z,0
2017-12-24T03:41:53.330Z,0
2017-12-24T03:42:53.351Z,0
2017-12-24T03:43:53.364Z,0
2017-12-24T03:44:53.374Z,0
2017-12-24T03:45:53.391Z,0
2017-12-24T03:46:53.124Z,0
2017-12-24T03:47:53.411Z,0
2017-12-24T03:48:53.427Z,0
2017-12-24T03:49:53.170Z,0
2017-12-24T03:50:53.467Z,0
2017-12-24T03:51:53.752Z,0
2017-12-24T03:52:53.209Z,0
2017-12-24T03:53:53.548Z,0
2017-12-24T03:54:53.239Z,0
2017-12-24T03:55:53.813Z,0
2017-12-24T03:56:53.554Z,0
2017-12-24T03:57:53.835Z,0
2017-12-24T03:58:53.569Z,0
2017-12-24T03:59:53.859Z,0
2017-12-24T04:00:53.600Z,0
2017-12-24T04:01:53.894Z,0
2017-12-24T04:02:53.901Z,0
2017-12-24T04:03:54.040Z,0
2017-12-24T04:04:53.930Z,0
2017-12-24T04:05:53.669Z,0
2017-12-24T04:06:53.683Z,0
2017-12-24T04:07:53.425Z,0
2017-12-24T04:08:53.447Z,0
2017-12-24T04:09:54.060Z,0
2017-12-24T04:10:53.738Z,0
2017-12-24T04:11:53.759Z,0
2017-12-24T04:12:53.765Z,0
2017-12-24T04:13:53.343Z,0
2017-12-24T04:14:53.518Z,0
2017-12-24T04:15:53.532Z,0
2017-12-24T04:16:54.111Z,0
2017-12-24T04:17:53.834Z,0
2017-12-24T04:18:54.123Z,0
2017-12-24T04:19:53.870Z,0
2017-12-24T04:20:54.150Z,0
2017-12-24T04:21:54.172Z,0
2017-12-24T04:22:54.184Z,0
2017-12-24T04:23:53.421Z,0
2017-12-24T04:24:53.934Z,0
2017-12-24T04:25:54.220Z,0
2017-12-24T04:26:53.962Z,0
2017-12-24T04:27:53.982Z,0
2017-12-24T04:28:53.988Z,0
2017-12-24T04:29:53.999Z,0
2017-12-24T04:30:54.015Z,0
2017-12-24T04:31:54.030Z,0
2017-12-24T04:32:54.321Z,0
2017-12-24T04:33:54.392Z,0
2017-12-24T04:34:54.353Z,0
2017-12-24T04:35:54.363Z,0
2017-12-24T04:36:54.101Z,0
2017-12-24T04:37:54.388Z,0
2017-12-24T04:38:54.500Z,0
2017-12-24T04:39:54.142Z,0
2017-12-24T04:40:54.437Z,0
2017-12-24T04:41:54.182Z,0
2017-12-24T04:42:54.462Z,0
2017-12-24T04:43:54.203Z,0
2017-12-24T04:44:54.487Z,0
2017-12-24T04:45:54.224Z,0
2017-12-24T04:46:53.965Z,0
2017-12-24T04:47:54.260Z,0
2017-12-24T04:48:54.361Z,0
2017-12-24T04:49:54.287Z,0
2017-12-24T04:50:54.573Z,0
2017-12-24T04:51:54.041Z,0
2017-12-24T04:52:54.598Z,0
2017-12-24T04:53:54.609Z,0
2017-12-24T04:54:54.356Z,0
2017-12-24T04:55:54.089Z,0
2017-12-24T04:56:54.103Z,0
2017-12-24T04:57:54.392Z,0
2017-12-24T04:58:54.144Z,0
2017-12-24T04:59:54.698Z,0
2017-12-24T05:00:54.437Z,0
2017-12-24T05:01:54.450Z,0
2017-12-24T05:02:54.188Z,0
2017-12-24T05:03:54.867Z,0
2017-12-24T05:04:54.487Z,0
2017-12-24T05:05:54.503Z,0
2017-12-24T05:06:54.248Z,0
2017-12-24T05:07:54.804Z,0
2017-12-24T05:08:54.877Z,0
2017-12-24T05:09:54.842Z,0
2017-12-24T05:10:54.587Z,0
2017-12-24T05:11:54.866Z,0
2017-12-24T05:12:54.604Z,0
2017-12-24T05:13:54.939Z,0
2017-12-24T05:14:54.080Z,0
2017-12-24T05:15:54.918Z,0
2017-12-24T05:16:54.659Z,0
2017-12-24T05:17:54.947Z,0
2017-12-24T05:18:55.008Z,0
2017-12-24T05:19:54.698Z,0
2017-12-24T05:20:54.437Z,0
2017-12-24T05:21:54.729Z,0
2017-12-24T05:22:55.017Z,0
2017-12-24T05:23:54.856Z,0
2017-12-24T05:24:54.771Z,0
2017-12-24T05:25:54.504Z,0
2017-12-24T05:26:55.068Z,0
2017-12-24T05:27:54.534Z,0
2017-12-24T05:28:54.829Z,0
2017-12-24T05:29:54.563Z,0
2017-12-24T05:30:54.578Z,0
2017-12-24T05:31:55.151Z,0
2017-12-24T05:32:54.603Z,0
2017-12-24T05:33:54.893Z,0
2017-12-24T05:34:55.185Z,0
2017-12-24T05:35:55.192Z,0
2017-12-24T05:36:54.987Z,0
2017-12-24T05:37:55.225Z,0
2017-12-24T05:38:55.014Z,0
2017-12-24T05:39:54.995Z,0
2017-12-24T05:40:55.261Z,0
2017-12-24T05:41:55.277Z,0
2017-12-24T05:42:55.014Z,0
2017-12-24T05:43:55.359Z,0
2017-12-24T05:44:55.319Z,0
2017-12-24T05:45:55.339Z,0
2017-12-24T05:46:55.073Z,0
2017-12-24T05:47:55.373Z,0
2017-12-24T05:48:55.450Z,0
2017-12-24T05:49:54.840Z,0
2017-12-24T05:50:55.129Z,0
2017-12-24T05:51:54.869Z,0
2017-12-24T05:52:55.430Z,0
2017-12-24T05:53:55.169Z,0
2017-12-24T05:54:55.182Z,0
2017-12-24T05:55:55.467Z,0
2017-12-24T05:56:55.491Z,0
2017-12-24T05:57:54.675Z,0
2017-12-24T05:58:55.259Z,0
2017-12-24T05:59:55.254Z,0
2017-12-24T06:00:55.273Z,0
2017-12-24T06:01:55.278Z,0
2017-12-24T06:02:55.611Z,0
2017-12-24T06:03:55.030Z,0
2017-12-24T06:04:55.664Z,0
2017-12-24T06:05:55.612Z,0
2017-12-24T06:06:55.074Z,0
2017-12-24T06:07:55.637Z,0
2017-12-24T06:08:55.384Z,0
2017-12-24T06:09:55.394Z,0
2017-12-24T06:10:55.718Z,0
2017-12-24T06:11:55.723Z,0
2017-12-24T06:12:55.710Z,0
2017-12-24T06:13:55.177Z,0
2017-12-24T06:14:55.459Z,0
2017-12-24T06:15:55.197Z,0
2017-12-24T06:16:55.498Z,0
2017-12-24T06:17:55.792Z,0
2017-12-24T06:18:55.791Z,0
2017-12-24T06:19:55.530Z,0
2017-12-24T06:20:55.825Z,0
2017-12-24T06:21:55.838Z,0
2017-12-24T06:22:55.849Z,0
2017-12-24T06:23:55.634Z,0
2017-12-24T06:24:55.872Z,0
2017-12-24T06:25:55.894Z,0
2017-12-24T06:26:55.903Z,0
2017-12-24T06:27:55.638Z,0
2017-12-24T06:28:55.929Z,0
2017-12-24T06:29:55.676Z,0
2017-12-24T06:30:55.681Z,0
2017-12-24T06:31:55.693Z,0
2017-12-24T06:32:55.433Z,0
2017-12-24T06:33:55.505Z,0
2017-12-24T06:34:56.026Z,0
2017-12-24T06:35:55.762Z,0
2017-12-24T06:36:56.040Z,0
2017-12-24T06:37:56.055Z,0
2017-12-24T06:38:55.794Z,0
2017-12-24T06:39:56.096Z,0
2017-12-24T06:40:55.819Z,0
2017-12-24T06:41:55.835Z,0
2017-12-24T06:42:55.572Z,0
2017-12-24T06:43:56.187Z,0
2017-12-24T06:44:56.150Z,0
2017-12-24T06:45:56.028Z,0
2017-12-24T06:46:56.186Z,0
2017-12-24T06:47:56.214Z,0
2017-12-24T06:48:55.985Z,0
2017-12-24T06:49:55.946Z,0
2017-12-24T06:50:56.237Z,4
2017-12-24T06:51:56.248Z,4
2017-12-24T06:52:55.990Z,0
2017-12-24T06:53:56.279Z,0
2017-12-24T06:54:56.018Z,4
2017-12-24T06:55:55.764Z,4
2017-12-24T06:56:56.051Z,0
2017-12-24T06:57:56.333Z,4
2017-12-24T06:58:55.519Z,8
2017-12-24T06:59:56.360Z,4
2017-12-24T07:00:56.377Z,4
2017-12-24T07:01:55.557Z,8
2017-12-24T07:02:56.401Z,8
2017-12-24T07:03:55.880Z,8
2017-12-24T07:04:56.431Z,12
2017-12-24T07:05:55.890Z,12
2017-12-24T07:06:56.200Z,16
2017-12-24T07:07:55.641Z,16
2017-12-24T07:08:56.209Z,16
2017-12-24T07:09:56.498Z,20
2017-12-24T07:10:56.527Z,20
2017-12-24T07:11:55.703Z,20
2017-12-24T07:12:56.263Z,24
2017-12-24T07:13:56.275Z,28
2017-12-24T07:14:56.013Z,28
2017-12-24T07:15:56.593Z,28
2017-12-24T07:16:56.322Z,32
2017-12-24T07:17:56.614Z,36
2017-12-24T07:18:56.353Z,36
2017-12-24T07:19:56.085Z,44
2017-12-24T07:20:56.649Z,48
2017-12-24T07:21:56.664Z,52
2017-12-24T07:22:56.679Z,56
2017-12-24T07:23:55.867Z,60
2017-12-24T07:24:56.776Z,68
2017-12-24T07:25:56.720Z,80
2017-12-24T07:26:56.181Z,92
2017-12-24T07:27:56.481Z,92
2017-12-24T07:28:56.767Z,88
2017-12-24T07:29:56.785Z,80
2017-12-24T07:30:56.238Z,76
2017-12-24T07:31:56.808Z,84
2017-12-24T07:32:56.825Z,92
2017-12-24T07:33:56.554Z,88
2017-12-24T07:34:56.909Z,76
2017-12-24T07:35:56.904Z,72
2017-12-24T07:36:56.594Z,76
2017-12-24T07:37:56.617Z,80
2017-12-24T07:38:56.073Z,88
2017-12-24T07:39:56.673Z,84
2017-12-24T07:40:56.934Z,88
2017-12-24T07:41:56.944Z,100
2017-12-24T07:42:56.958Z,88
2017-12-24T07:43:56.970Z,96
2017-12-24T07:44:56.983Z,100
2017-12-24T07:45:56.460Z,104
2017-12-24T07:46:57.011Z,96
2017-12-24T07:47:57.025Z,108
2017-12-24T07:48:56.490Z,104
2017-12-24T07:49:57.104Z,96
2017-12-24T07:50:56.859Z,96
2017-12-24T07:51:57.082Z,104
2017-12-24T07:52:56.821Z,108
2017-12-24T07:53:56.831Z,104
2017-12-24T07:54:57.123Z,116
2017-12-24T07:55:57.146Z,120
2017-12-24T07:56:56.882Z,120
2017-12-24T07:57:57.168Z,120
2017-12-24T07:58:56.628Z,124
2017-12-24T07:59:57.281Z,136
2017-12-24T08:00:57.210Z,128
2017-12-24T08:01:56.674Z,120
2017-12-24T08:02:57.296Z,136
2017-12-24T08:03:57.250Z,132
2017-12-24T08:04:56.993Z,140
2017-12-24T08:05:57.278Z,116
2017-12-24T08:06:57.020Z,128
2017-12-24T08:07:57.035Z,132
2017-12-24T08:08:57.334Z,116
2017-12-24T08:09:57.063Z,132
2017-12-24T08:10:57.350Z,128
2017-12-24T08:11:57.091Z,120
2017-12-24T08:12:57.108Z,112
2017-12-24T08:13:57.119Z,120
2017-12-24T08:14:57.176Z,128
2017-12-24T08:15:57.142Z,140
2017-12-24T08:16:57.158Z,136
2017-12-24T08:17:57.177Z,148
2017-12-24T08:18:57.187Z,148
2017-12-24T08:19:56.928Z,148
2017-12-24T08:20:57.503Z,164
2017-12-24T08:21:57.568Z,176
2017-12-24T08:22:56.970Z,192
2017-12-24T08:23:57.535Z,184
2017-12-24T08:24:57.352Z,180
2017-12-24T08:25:57.288Z,180
2017-12-24T08:26:57.300Z,180
2017-12-24T08:27:57.598Z,188
2017-12-24T08:28:57.602Z,200
2017-12-24T08:29:57.066Z,220
2017-12-24T08:30:57.636Z,228
2017-12-24T08:31:57.371Z,228
2017-12-24T08:32:57.389Z,228
2017-12-24T08:33:57.672Z,256
2017-12-24T08:34:57.695Z,280
2017-12-24T08:35:57.430Z,264
2017-12-24T08:36:57.719Z,252
2017-12-24T08:37:57.460Z,268
2017-12-24T08:38:57.753Z,252
2017-12-24T08:39:57.763Z,264
2017-12-24T08:40:57.772Z,256
2017-12-24T08:41:57.511Z,260
2017-12-24T08:42:57.528Z,260
2017-12-24T08:43:57.546Z,248
2017-12-24T08:44:57.833Z,236
2017-12-24T08:45:57.992Z,240
2017-12-24T08:46:57.857Z,236
2017-12-24T08:47:57.873Z,236
2017-12-24T08:48:57.885Z,248
2017-12-24T08:49:57.649Z,252
2017-12-24T08:50:57.442Z,252
2017-12-24T08:51:57.655Z,256
2017-12-24T08:52:57.940Z,252
2017-12-24T08:53:57.956Z,280
2017-12-24T08:54:57.697Z,260
2017-12-24T08:55:57.494Z,228
2017-12-24T08:56:57.450Z,212
2017-12-24T08:57:57.466Z,224
2017-12-24T08:58:57.750Z,272
2017-12-24T08:59:58.055Z,228
2017-12-24T09:00:58.113Z,204
2017-12-24T09:01:57.519Z,184
2017-12-24T09:02:57.812Z,188
2017-12-24T09:03:58.107Z,204
2017-12-24T09:04:57.564Z,224
2017-12-24T09:05:57.948Z,200
2017-12-24T09:06:57.595Z,212
2017-12-24T09:07:57.944Z,232
2017-12-24T09:08:57.963Z,256
2017-12-24T09:09:57.928Z,236
2017-12-24T09:10:57.932Z,244
2017-12-24T09:11:57.669Z,220
2017-12-24T09:12:57.952Z,212
2017-12-24T09:13:57.981Z,204
2017-12-24T09:14:57.988Z,208
2017-12-24T09:15:58.324Z,212
2017-12-24T09:16:58.346Z,244
2017-12-24T09:17:58.045Z,232
2017-12-24T09:18:58.545Z,208
2017-12-24T09:19:58.054Z,200
2017-12-24T09:20:58.067Z,176
2017-12-24T09:21:58.361Z,172
2017-12-24T09:22:58.110Z,200
2017-12-24T09:23:58.404Z,200
2017-12-24T09:24:57.895Z,220
2017-12-24T09:25:58.474Z,200
2017-12-24T09:26:58.451Z,220
2017-12-24T09:27:58.171Z,244
2017-12-24T09:28:58.192Z,228
2017-12-24T09:29:58.215Z,240
2017-12-24T09:30:57.991Z,284
2017-12-24T09:31:58.229Z,240
2017-12-24T09:32:58.518Z,188
2017-12-24T09:33:58.266Z,220
2017-12-24T09:34:58.545Z,240
2017-12-24T09:35:58.337Z,248
2017-12-24T09:36:58.578Z,344
2017-12-24T09:37:58.313Z,396
2017-12-24T09:38:58.615Z,356
2017-12-24T09:39:58.622Z,292
2017-12-24T09:40:58.408Z,312
2017-12-24T09:41:58.372Z,400
2017-12-24T09:42:58.386Z,432
2017-12-24T09:43:58.678Z,392
2017-12-24T09:44:58.692Z,360
2017-12-24T09:45:58.150Z,408
2017-12-24T09:46:58.444Z,424
2017-12-24T09:47:58.745Z,388
2017-12-24T09:48:58.745Z,376
2017-12-24T09:49:58.242Z,456
2017-12-24T09:50:58.599Z,684
2017-12-24T09:51:58.789Z,664
2017-12-24T09:52:58.260Z,460
2017-12-24T09:53:58.824Z,440
2017-12-24T09:54:58.842Z,524
2017-12-24T09:55:58.904Z,608
2017-12-24T09:56:58.662Z,800
2017-12-24T09:57:58.602Z,732
2017-12-24T09:58:58.899Z,632
2017-12-24T09:59:58.916Z,680
2017-12-24T10:00:58.718Z,688
2017-12-24T10:01:58.664Z,788
2017-12-24T10:02:58.701Z,620
2017-12-24T10:03:58.752Z,736
2017-12-24T10:04:58.706Z,640
2017-12-24T10:05:58.718Z,596
2017-12-24T10:06:58.738Z,716
2017-12-24T10:07:59.035Z,716
2017-12-24T10:08:59.041Z,616
2017-12-24T10:09:59.060Z,632
2017-12-24T10:10:58.841Z,660
2017-12-24T10:11:58.813Z,864
2017-12-24T10:12:58.823Z,504
2017-12-24T10:13:58.839Z,688
2017-12-24T10:14:58.852Z,556
2017-12-24T10:15:58.973Z,708
2017-12-24T10:16:59.161Z,640
2017-12-24T10:17:59.205Z,640
2017-12-24T10:18:58.912Z,692
2017-12-24T10:19:58.936Z,628
2017-12-24T10:20:59.269Z,792
2017-12-24T10:21:58.961Z,652
2017-12-24T10:22:58.692Z,904
2017-12-24T10:23:59.085Z,796
2017-12-24T10:24:58.858Z,608
2017-12-24T10:25:59.100Z,616
2017-12-24T10:26:59.308Z,616
2017-12-24T10:27:59.044Z,548
2017-12-24T10:28:59.061Z,628
2017-12-24T10:29:59.079Z,512
2017-12-24T10:30:59.138Z,452
2017-12-24T10:31:59.386Z,588
2017-12-24T10:32:59.406Z,580
2017-12-24T10:33:59.135Z,564
2017-12-24T10:34:59.424Z,580
2017-12-24T10:35:58.889Z,472
2017-12-24T10:36:59.179Z,432
2017-12-24T10:37:59.467Z,452
2017-12-24T10:38:59.206Z,412
2017-12-24T10:39:58.948Z,556
2017-12-24T10:40:59.003Z,712
2017-12-24T10:41:59.252Z,504
2017-12-24T10:42:59.552Z,528
2017-12-24T10:43:59.040Z,492
2017-12-24T10:44:59.029Z,512
2017-12-24T10:45:59.083Z,616
2017-12-24T10:46:59.604Z,588
2017-12-24T10:47:59.346Z,504
2017-12-24T10:48:59.354Z,464
2017-12-24T10:49:59.098Z,584
2017-12-24T10:50:59.440Z,488
2017-12-24T10:51:59.119Z,592
2017-12-24T10:52:59.515Z,552
2017-12-24T10:53:59.441Z,520
2017-12-24T10:54:59.441Z,524
2017-12-24T10:55:59.523Z,584
2017-12-24T10:56:59.751Z,640
2017-12-24T10:57:59.487Z,596
2017-12-24T10:58:59.778Z,604
2017-12-24T10:59:59.522Z,568
2017-12-24T11:00:59.856Z,560
2017-12-24T11:01:59.879Z,568
2017-12-24T11:02:59.562Z,628
2017-12-24T11:03:59.583Z,560
2017-12-24T11:04:59.611Z,464
2017-12-24T11:05:59.655Z,544
2017-12-24T11:06:59.899Z,528
2017-12-24T11:07:59.640Z,460
2017-12-24T11:08:59.727Z,480
2017-12-24T11:09:59.681Z,488
2017-12-24T11:10:59.405Z,452
2017-12-24T11:11:59.982Z,496
2017-12-24T11:12:59.439Z,512
2017-12-24T11:14:00.000Z,452
2017-12-24T11:14:59.754Z,468
2017-12-24T11:15:59.816Z,388
2017-12-24T11:16:59.769Z,380
2017-12-24T11:17:59.787Z,372
2017-12-24T11:19:00.094Z,348
2017-12-24T11:20:00.095Z,356
2017-12-24T11:20:59.623Z,336
2017-12-24T11:21:59.848Z,448
2017-12-24T11:23:00.145Z,324
2017-12-24T11:23:59.322Z,336
2017-12-24T11:24:59.911Z,392
2017-12-24T11:25:59.631Z,308
2017-12-24T11:27:00.201Z,324
2017-12-24T11:27:59.665Z,412
2017-12-24T11:28:59.950Z,308
2017-12-24T11:29:59.970Z,344
2017-12-24T11:30:59.983Z,380
2017-12-24T11:32:00.274Z,444
2017-12-24T11:33:00.294Z,408
2017-12-24T11:33:59.749Z,392
2017-12-24T11:35:00.328Z,384
2017-12-24T11:36:00.103Z,400
2017-12-24T11:37:00.073Z,392
2017-12-24T11:38:00.371Z,400
2017-12-24T11:39:00.375Z,348
2017-12-24T11:40:00.403Z,336
2017-12-24T11:41:00.414Z,360
2017-12-24T11:41:59.872Z,392
2017-12-24T11:43:00.163Z,472
2017-12-24T11:44:00.179Z,492
2017-12-24T11:45:00.468Z,500
2017-12-24T11:46:00.540Z,492
2017-12-24T11:46:59.947Z,392
2017-12-24T11:48:00.519Z,448
2017-12-24T11:48:59.982Z,448
2017-12-24T11:50:00.542Z,528
2017-12-24T11:51:00.569Z,468
2017-12-24T11:52:00.329Z,384
2017-12-24T11:53:00.613Z,424
2017-12-24T11:54:00.601Z,432
2017-12-24T11:55:00.618Z,472
2017-12-24T11:56:00.410Z,432
2017-12-24T11:57:00.660Z,476
2017-12-24T11:58:00.111Z,412
2017-12-24T11:59:00.133Z,376
2017-12-24T12:00:00.425Z,424
2017-12-24T12:01:00.209Z,408
2017-12-24T12:02:00.451Z,348
2017-12-24T12:03:00.740Z,364
2017-12-24T12:04:00.479Z,320
2017-12-24T12:05:00.229Z,324
2017-12-24T12:06:00.567Z,348
2017-12-24T12:07:00.522Z,304
2017-12-24T12:08:00.263Z,320
2017-12-24T12:09:00.829Z,284
2017-12-24T12:10:00.849Z,216
2017-12-24T12:11:00.912Z,224
2017-12-24T12:12:00.873Z,236
2017-12-24T12:13:00.888Z,220
2017-12-24T12:14:00.627Z,232
2017-12-24T12:15:00.923Z,228
2017-12-24T12:16:00.723Z,208
2017-12-24T12:17:00.953Z,228
2017-12-24T12:18:01.120Z,240
2017-12-24T12:19:00.454Z,224
2017-12-24T12:20:01.000Z,256
2017-12-24T12:21:00.732Z,244
2017-12-24T12:22:00.474Z,212
2017-12-24T12:23:00.770Z,172
2017-12-24T12:24:00.504Z,204
2017-12-24T12:25:00.794Z,220
2017-12-24T12:26:01.084Z,252
2017-12-24T12:27:01.099Z,264
2017-12-24T12:28:01.122Z,248
2017-12-24T12:29:00.577Z,272
2017-12-24T12:30:00.894Z,248
2017-12-24T12:31:01.224Z,216
2017-12-24T12:32:00.905Z,284
2017-12-24T12:33:00.916Z,260
2017-12-24T12:34:01.283Z,256
2017-12-24T12:35:01.008Z,252
2017-12-24T12:36:01.362Z,256
2017-12-24T12:37:00.699Z,212
2017-12-24T12:38:01.266Z,268
2017-12-24T12:39:00.452Z,296
2017-12-24T12:40:01.026Z,212
2017-12-24T12:41:01.366Z,216
2017-12-24T12:42:00.777Z,196
2017-12-24T12:43:01.334Z,228
2017-12-24T12:44:01.081Z,188
2017-12-24T12:45:01.374Z,204
2017-12-24T12:46:01.383Z,136
2017-12-24T12:47:00.849Z,132
2017-12-24T12:48:01.144Z,180
2017-12-24T12:49:01.429Z,200
2017-12-24T12:50:01.480Z,192
2017-12-24T12:51:00.957Z,144
2017-12-24T12:52:01.210Z,172
2017-12-24T12:53:00.934Z,184
2017-12-24T12:54:01.518Z,212
2017-12-24T12:55:01.253Z,220
2017-12-24T12:56:01.044Z,276
2017-12-24T12:57:01.550Z,232
2017-12-24T12:58:01.573Z,236
2017-12-24T12:59:01.578Z,188
2017-12-24T13:00:01.360Z,208
2017-12-24T13:01:00.781Z,184
2017-12-24T13:02:01.351Z,180
2017-12-24T13:03:01.371Z,184
2017-12-24T13:04:01.386Z,168
2017-12-24T13:05:01.398Z,180
2017-12-24T13:06:01.685Z,188
2017-12-24T13:07:01.427Z,168
2017-12-24T13:08:01.714Z,156
2017-12-24T13:09:01.182Z,172
2017-12-24T13:10:01.754Z,160
2017-12-24T13:11:02.327Z,164
2017-12-24T13:12:01.782Z,160
2017-12-24T13:13:01.515Z,152
2017-12-24T13:14:01.536Z,160
2017-12-24T13:15:01.820Z,164
2017-12-24T13:16:01.566Z,160
2017-12-24T13:17:01.625Z,160
2017-12-24T13:18:01.874Z,180
2017-12-24T13:19:01.884Z,176
2017-12-24T13:20:01.902Z,156
2017-12-24T13:21:01.085Z,172
2017-12-24T13:22:01.925Z,144
2017-12-24T13:23:01.667Z,128
2017-12-24T13:24:01.687Z,152
2017-12-24T13:25:01.977Z,152
2017-12-24T13:26:01.990Z,132
2017-12-24T13:27:02.006Z,128
2017-12-24T13:28:02.015Z,140
2017-12-24T13:29:02.035Z,160
2017-12-24T13:30:01.774Z,136
2017-12-24T13:31:01.273Z,148
2017-12-24T13:32:02.139Z,168
2017-12-24T13:33:01.814Z,176
2017-12-24T13:34:01.557Z,180
2017-12-24T13:35:02.122Z,164
2017-12-24T13:36:01.871Z,148
2017-12-24T13:37:01.877Z,168
2017-12-24T13:38:02.007Z,136
2017-12-24T13:39:01.630Z,132
2017-12-24T13:40:01.371Z,152
2017-12-24T13:41:01.939Z,132
2017-12-24T13:42:01.673Z,116
2017-12-24T13:43:02.240Z,148
2017-12-24T13:44:01.980Z,132
2017-12-24T13:45:01.997Z,168
2017-12-24T13:46:02.295Z,200
2017-12-24T13:47:01.756Z,184
2017-12-24T13:48:01.766Z,208
2017-12-24T13:49:02.335Z,164
2017-12-24T13:50:02.070Z,184
2017-12-24T13:51:01.813Z,216
2017-12-24T13:52:01.880Z,212
2017-12-24T13:53:02.122Z,192
2017-12-24T13:54:02.141Z,148
2017-12-24T13:55:02.421Z,108
2017-12-24T13:56:02.503Z,92
2017-12-24T13:57:02.225Z,96
2017-12-24T13:58:01.919Z,96
2017-12-24T13:59:02.488Z,92
2017-12-24T14:00:02.228Z,84
2017-12-24T14:01:02.243Z,88
2017-12-24T14:02:02.350Z,88
2017-12-24T14:03:02.548Z,84
2017-12-24T14:04:02.556Z,84
2017-12-24T14:05:02.723Z,92
2017-12-24T14:06:02.592Z,84
2017-12-24T14:07:02.383Z,92
2017-12-24T14:08:02.348Z,96
2017-12-24T14:09:02.629Z,88
2017-12-24T14:10:02.091Z,80
2017-12-24T14:11:02.668Z,76
2017-12-24T14:12:02.676Z,64
2017-12-24T14:13:02.708Z,68
2017-12-24T14:14:02.721Z,68
2017-12-24T14:15:02.172Z,60
2017-12-24T14:16:02.738Z,60
2017-12-24T14:17:02.529Z,52
2017-12-24T14:18:02.520Z,56